sensor_id;sensor_type;location;lat;lon;timestamp;P1;durP1;ratioP1;P2;durP2;ratioP2
33740;SDS011;20065;48.380;10.892;2024-01-11T00:00:12;63.50;;;27.60;;
33740;SDS011;20065;48.380;10.892;2024-01-11T00:02:59;64.05;;;26.52;;
33740;SDS011;20065;48.380;10.892;2024-01-11T00:05:45;58.78;;;26.58;;
33740;SDS011;20065;48.380;10.892;2024-01-11T00:08:32;65.80;;;27.63;;
33740;SDS011;20065;48.380;10.892;2024-01-11T00:11:18;68.95;;;28.02;;
33740;SDS011;20065;48.380;10.892;2024-01-11T00:14:04;52.72;;;25.83;;
33740;SDS011;20065;48.380;10.892;2024-01-11T00:16:51;59.10;;;25.77;;
33740;SDS011;20065;48.380;10.892;2024-01-11T00:19:37;55.22;;;24.48;;
33740;SDS011;20065;48.380;10.892;2024-01-11T00:22:24;53.63;;;25.60;;
33740;SDS011;20065;48.380;10.892;2024-01-11T00:25:10;56.13;;;25.08;;
33740;SDS011;20065;48.380;10.892;2024-01-11T00:27:56;51.78;;;25.52;;
33740;SDS011;20065;48.380;10.892;2024-01-11T00:30:45;56.88;;;27.27;;
33740;SDS011;20065;48.380;10.892;2024-01-11T00:33:31;63.80;;;26.60;;
33740;SDS011;20065;48.380;10.892;2024-01-11T00:36:18;61.85;;;27.27;;
33740;SDS011;20065;48.380;10.892;2024-01-11T00:39:07;61.70;;;26.67;;
33740;SDS011;20065;48.380;10.892;2024-01-11T00:41:54;57.63;;;25.67;;
33740;SDS011;20065;48.380;10.892;2024-01-11T00:44:40;63.05;;;25.50;;
33740;SDS011;20065;48.380;10.892;2024-01-11T00:47:30;58.60;;;26.50;;
33740;SDS011;20065;48.380;10.892;2024-01-11T00:50:16;64.03;;;27.48;;
33740;SDS011;20065;48.380;10.892;2024-01-11T00:53:02;68.93;;;30.35;;
33740;SDS011;20065;48.380;10.892;2024-01-11T00:55:48;60.15;;;27.50;;
33740;SDS011;20065;48.380;10.892;2024-01-11T00:58:38;63.78;;;28.45;;
33740;SDS011;20065;48.380;10.892;2024-01-11T01:01:24;65.15;;;26.98;;
33740;SDS011;20065;48.380;10.892;2024-01-11T01:04:13;69.45;;;29.20;;
33740;SDS011;20065;48.380;10.892;2024-01-11T01:06:59;65.97;;;29.90;;
33740;SDS011;20065;48.380;10.892;2024-01-11T01:09:45;68.68;;;28.90;;
33740;SDS011;20065;48.380;10.892;2024-01-11T01:12:31;72.40;;;29.90;;
33740;SDS011;20065;48.380;10.892;2024-01-11T01:15:17;63.90;;;30.67;;
33740;SDS011;20065;48.380;10.892;2024-01-11T01:18:03;74.43;;;31.50;;
33740;SDS011;20065;48.380;10.892;2024-01-11T01:20:53;74.05;;;32.17;;
33740;SDS011;20065;48.380;10.892;2024-01-11T01:23:40;74.97;;;32.42;;
33740;SDS011;20065;48.380;10.892;2024-01-11T01:26:26;81.68;;;31.83;;
33740;SDS011;20065;48.380;10.892;2024-01-11T01:29:12;75.22;;;32.08;;
33740;SDS011;20065;48.380;10.892;2024-01-11T01:31:58;69.13;;;32.78;;
33740;SDS011;20065;48.380;10.892;2024-01-11T01:34:44;75.85;;;34.63;;
33740;SDS011;20065;48.380;10.892;2024-01-11T01:37:30;75.35;;;32.28;;
33740;SDS011;20065;48.380;10.892;2024-01-11T01:40:16;67.72;;;31.27;;
33740;SDS011;20065;48.380;10.892;2024-01-11T01:43:12;74.47;;;31.58;;
33740;SDS011;20065;48.380;10.892;2024-01-11T01:46:01;76.35;;;33.42;;
33740;SDS011;20065;48.380;10.892;2024-01-11T01:48:51;76.03;;;33.72;;
33740;SDS011;20065;48.380;10.892;2024-01-11T01:51:39;74.15;;;29.85;;
33740;SDS011;20065;48.380;10.892;2024-01-11T01:54:26;70.05;;;31.20;;
33740;SDS011;20065;48.380;10.892;2024-01-11T01:57:12;71.18;;;34.35;;
33740;SDS011;20065;48.380;10.892;2024-01-11T02:00:00;65.45;;;30.42;;
33740;SDS011;20065;48.380;10.892;2024-01-11T02:02:57;76.95;;;33.22;;
33740;SDS011;20065;48.380;10.892;2024-01-11T02:05:43;67.57;;;31.98;;
33740;SDS011;20065;48.380;10.892;2024-01-11T02:08:30;73.43;;;34.10;;
33740;SDS011;20065;48.380;10.892;2024-01-11T02:11:17;75.57;;;32.95;;
33740;SDS011;20065;48.380;10.892;2024-01-11T02:14:06;73.97;;;33.85;;
33740;SDS011;20065;48.380;10.892;2024-01-11T02:16:53;68.35;;;33.03;;
33740;SDS011;20065;48.380;10.892;2024-01-11T02:19:39;70.50;;;31.98;;
33740;SDS011;20065;48.380;10.892;2024-01-11T02:22:29;71.18;;;31.08;;
33740;SDS011;20065;48.380;10.892;2024-01-11T02:25:20;73.90;;;32.20;;
33740;SDS011;20065;48.380;10.892;2024-01-11T02:28:06;68.22;;;30.30;;
33740;SDS011;20065;48.380;10.892;2024-01-11T02:30:53;69.13;;;31.88;;
33740;SDS011;20065;48.380;10.892;2024-01-11T02:33:39;71.63;;;33.60;;
33740;SDS011;20065;48.380;10.892;2024-01-11T02:36:26;76.10;;;33.58;;
33740;SDS011;20065;48.380;10.892;2024-01-11T02:39:13;73.22;;;32.33;;
33740;SDS011;20065;48.380;10.892;2024-01-11T02:42:02;66.63;;;31.48;;
33740;SDS011;20065;48.380;10.892;2024-01-11T02:44:48;70.38;;;31.00;;
33740;SDS011;20065;48.380;10.892;2024-01-11T02:47:34;69.28;;;30.55;;
33740;SDS011;20065;48.380;10.892;2024-01-11T02:50:20;65.47;;;31.20;;
33740;SDS011;20065;48.380;10.892;2024-01-11T02:53:07;71.85;;;33.53;;
33740;SDS011;20065;48.380;10.892;2024-01-11T02:55:53;59.42;;;28.60;;
33740;SDS011;20065;48.380;10.892;2024-01-11T02:58:39;68.55;;;31.58;;
33740;SDS011;20065;48.380;10.892;2024-01-11T03:01:26;68.35;;;32.15;;
33740;SDS011;20065;48.380;10.892;2024-01-11T03:04:12;67.85;;;30.70;;
33740;SDS011;20065;48.380;10.892;2024-01-11T03:06:59;72.85;;;32.15;;
33740;SDS011;20065;48.380;10.892;2024-01-11T03:09:45;69.88;;;31.15;;
33740;SDS011;20065;48.380;10.892;2024-01-11T03:12:32;71.30;;;31.23;;
33740;SDS011;20065;48.380;10.892;2024-01-11T03:15:18;72.78;;;33.95;;
33740;SDS011;20065;48.380;10.892;2024-01-11T03:18:04;63.42;;;31.67;;
33740;SDS011;20065;48.380;10.892;2024-01-11T03:20:50;65.50;;;29.77;;
33740;SDS011;20065;48.380;10.892;2024-01-11T03:23:36;76.80;;;32.05;;
33740;SDS011;20065;48.380;10.892;2024-01-11T03:26:23;76.53;;;32.78;;
33740;SDS011;20065;48.380;10.892;2024-01-11T03:29:09;65.47;;;32.08;;
33740;SDS011;20065;48.380;10.892;2024-01-11T03:31:55;68.13;;;31.77;;
33740;SDS011;20065;48.380;10.892;2024-01-11T03:34:41;71.10;;;31.58;;
33740;SDS011;20065;48.380;10.892;2024-01-11T03:37:27;63.53;;;31.45;;
33740;SDS011;20065;48.380;10.892;2024-01-11T03:40:13;72.47;;;32.58;;
33740;SDS011;20065;48.380;10.892;2024-01-11T03:43:00;66.75;;;31.77;;
33740;SDS011;20065;48.380;10.892;2024-01-11T03:45:46;57.05;;;30.67;;
33740;SDS011;20065;48.380;10.892;2024-01-11T03:48:32;60.17;;;27.58;;
33740;SDS011;20065;48.380;10.892;2024-01-11T03:51:18;75.32;;;31.27;;
33740;SDS011;20065;48.380;10.892;2024-01-11T03:54:04;58.47;;;28.55;;
33740;SDS011;20065;48.380;10.892;2024-01-11T03:56:51;72.07;;;29.00;;
33740;SDS011;20065;48.380;10.892;2024-01-11T03:59:37;64.05;;;29.92;;
33740;SDS011;20065;48.380;10.892;2024-01-11T04:02:23;62.90;;;29.45;;
33740;SDS011;20065;48.380;10.892;2024-01-11T04:05:09;68.68;;;31.30;;
33740;SDS011;20065;48.380;10.892;2024-01-11T04:07:55;72.75;;;29.95;;
33740;SDS011;20065;48.380;10.892;2024-01-11T04:10:41;74.55;;;32.17;;
33740;SDS011;20065;48.380;10.892;2024-01-11T04:13:27;70.45;;;31.35;;
33740;SDS011;20065;48.380;10.892;2024-01-11T04:16:13;66.88;;;32.40;;
33740;SDS011;20065;48.380;10.892;2024-01-11T04:19:00;75.25;;;31.35;;
33740;SDS011;20065;48.380;10.892;2024-01-11T04:21:48;78.63;;;31.15;;
33740;SDS011;20065;48.380;10.892;2024-01-11T04:24:34;77.18;;;32.80;;
33740;SDS011;20065;48.380;10.892;2024-01-11T04:27:21;69.05;;;31.00;;
33740;SDS011;20065;48.380;10.892;2024-01-11T04:30:07;67.47;;;32.42;;
33740;SDS011;20065;48.380;10.892;2024-01-11T04:32:54;76.45;;;31.20;;
33740;SDS011;20065;48.380;10.892;2024-01-11T04:35:40;70.20;;;30.00;;
33740;SDS011;20065;48.380;10.892;2024-01-11T04:38:26;76.95;;;32.75;;
33740;SDS011;20065;48.380;10.892;2024-01-11T04:41:12;68.78;;;29.30;;
33740;SDS011;20065;48.380;10.892;2024-01-11T04:44:00;71.10;;;32.50;;
33740;SDS011;20065;48.380;10.892;2024-01-11T04:46:46;77.90;;;32.75;;
33740;SDS011;20065;48.380;10.892;2024-01-11T04:49:32;77.60;;;32.65;;
33740;SDS011;20065;48.380;10.892;2024-01-11T04:52:18;70.63;;;32.55;;
33740;SDS011;20065;48.380;10.892;2024-01-11T04:55:04;73.35;;;31.73;;
33740;SDS011;20065;48.380;10.892;2024-01-11T04:57:50;76.80;;;31.02;;
33740;SDS011;20065;48.380;10.892;2024-01-11T05:00:36;68.05;;;30.42;;
33740;SDS011;20065;48.380;10.892;2024-01-11T05:03:23;74.57;;;33.88;;
33740;SDS011;20065;48.380;10.892;2024-01-11T05:06:14;68.20;;;32.20;;
33740;SDS011;20065;48.380;10.892;2024-01-11T05:09:01;66.05;;;31.50;;
33740;SDS011;20065;48.380;10.892;2024-01-11T05:11:47;66.53;;;31.70;;
33740;SDS011;20065;48.380;10.892;2024-01-11T05:14:33;64.32;;;29.50;;
33740;SDS011;20065;48.380;10.892;2024-01-11T05:17:19;64.35;;;28.55;;
33740;SDS011;20065;48.380;10.892;2024-01-11T05:20:06;70.82;;;31.77;;
33740;SDS011;20065;48.380;10.892;2024-01-11T05:22:53;67.63;;;31.65;;
33740;SDS011;20065;48.380;10.892;2024-01-11T05:25:39;74.95;;;33.65;;
33740;SDS011;20065;48.380;10.892;2024-01-11T05:28:25;72.60;;;32.97;;
33740;SDS011;20065;48.380;10.892;2024-01-11T05:31:12;68.18;;;32.50;;
33740;SDS011;20065;48.380;10.892;2024-01-11T05:34:02;76.30;;;33.90;;
33740;SDS011;20065;48.380;10.892;2024-01-11T05:36:49;80.65;;;34.85;;
33740;SDS011;20065;48.380;10.892;2024-01-11T05:39:35;81.07;;;35.05;;
33740;SDS011;20065;48.380;10.892;2024-01-11T05:42:21;92.20;;;38.35;;
33740;SDS011;20065;48.380;10.892;2024-01-11T05:45:07;84.30;;;36.70;;
33740;SDS011;20065;48.380;10.892;2024-01-11T05:47:54;88.05;;;35.95;;
33740;SDS011;20065;48.380;10.892;2024-01-11T05:50:40;81.88;;;36.83;;
33740;SDS011;20065;48.380;10.892;2024-01-11T05:53:26;86.35;;;36.58;;
33740;SDS011;20065;48.380;10.892;2024-01-11T05:56:12;74.93;;;34.28;;
33740;SDS011;20065;48.380;10.892;2024-01-11T05:58:59;83.45;;;37.05;;
33740;SDS011;20065;48.380;10.892;2024-01-11T06:01:45;83.65;;;35.55;;
33740;SDS011;20065;48.380;10.892;2024-01-11T06:04:32;76.10;;;34.50;;
33740;SDS011;20065;48.380;10.892;2024-01-11T06:07:18;74.25;;;36.38;;
33740;SDS011;20065;48.380;10.892;2024-01-11T06:10:04;70.72;;;33.65;;
33740;SDS011;20065;48.380;10.892;2024-01-11T06:12:51;75.95;;;35.05;;
33740;SDS011;20065;48.380;10.892;2024-01-11T06:15:37;78.47;;;34.17;;
33740;SDS011;20065;48.380;10.892;2024-01-11T06:18:23;70.68;;;34.15;;
33740;SDS011;20065;48.380;10.892;2024-01-11T06:21:09;85.78;;;37.28;;
33740;SDS011;20065;48.380;10.892;2024-01-11T06:23:56;75.00;;;33.95;;
33740;SDS011;20065;48.380;10.892;2024-01-11T06:26:42;78.43;;;35.45;;
33740;SDS011;20065;48.380;10.892;2024-01-11T06:29:28;81.72;;;34.55;;
33740;SDS011;20065;48.380;10.892;2024-01-11T06:32:14;78.47;;;37.13;;
33740;SDS011;20065;48.380;10.892;2024-01-11T06:35:00;75.15;;;34.58;;
33740;SDS011;20065;48.380;10.892;2024-01-11T06:37:47;89.20;;;36.65;;
33740;SDS011;20065;48.380;10.892;2024-01-11T06:40:33;89.20;;;38.60;;
33740;SDS011;20065;48.380;10.892;2024-01-11T06:43:19;87.90;;;37.88;;
33740;SDS011;20065;48.380;10.892;2024-01-11T06:46:06;86.45;;;37.70;;
33740;SDS011;20065;48.380;10.892;2024-01-11T06:48:52;97.03;;;37.90;;
33740;SDS011;20065;48.380;10.892;2024-01-11T06:51:38;85.88;;;37.38;;
33740;SDS011;20065;48.380;10.892;2024-01-11T06:54:24;86.82;;;35.92;;
33740;SDS011;20065;48.380;10.892;2024-01-11T06:57:11;94.00;;;39.47;;
33740;SDS011;20065;48.380;10.892;2024-01-11T06:59:57;88.80;;;37.47;;
33740;SDS011;20065;48.380;10.892;2024-01-11T07:02:43;89.20;;;36.80;;
33740;SDS011;20065;48.380;10.892;2024-01-11T07:05:29;88.00;;;36.80;;
33740;SDS011;20065;48.380;10.892;2024-01-11T07:08:15;87.63;;;37.03;;
33740;SDS011;20065;48.380;10.892;2024-01-11T07:11:02;89.63;;;37.60;;
33740;SDS011;20065;48.380;10.892;2024-01-11T07:13:48;81.90;;;36.20;;
33740;SDS011;20065;48.380;10.892;2024-01-11T07:16:34;86.65;;;37.00;;
33740;SDS011;20065;48.380;10.892;2024-01-11T07:19:20;88.68;;;37.30;;
33740;SDS011;20065;48.380;10.892;2024-01-11T07:22:07;95.82;;;36.85;;
33740;SDS011;20065;48.380;10.892;2024-01-11T07:24:53;91.57;;;37.53;;
33740;SDS011;20065;48.380;10.892;2024-01-11T07:27:39;87.20;;;37.33;;
33740;SDS011;20065;48.380;10.892;2024-01-11T07:30:26;86.53;;;38.45;;
33740;SDS011;20065;48.380;10.892;2024-01-11T07:33:12;92.75;;;38.83;;
33740;SDS011;20065;48.380;10.892;2024-01-11T07:35:59;77.50;;;34.78;;
33740;SDS011;20065;48.380;10.892;2024-01-11T07:38:45;91.70;;;39.15;;
33740;SDS011;20065;48.380;10.892;2024-01-11T07:41:31;78.80;;;35.30;;
33740;SDS011;20065;48.380;10.892;2024-01-11T07:44:17;98.72;;;38.95;;
33740;SDS011;20065;48.380;10.892;2024-01-11T07:47:03;87.18;;;36.30;;
33740;SDS011;20065;48.380;10.892;2024-01-11T07:49:49;90.25;;;38.40;;
33740;SDS011;20065;48.380;10.892;2024-01-11T07:52:36;97.97;;;39.55;;
33740;SDS011;20065;48.380;10.892;2024-01-11T07:55:22;91.40;;;37.42;;
33740;SDS011;20065;48.380;10.892;2024-01-11T07:58:09;96.40;;;38.65;;
33740;SDS011;20065;48.380;10.892;2024-01-11T08:00:57;94.40;;;38.15;;
33740;SDS011;20065;48.380;10.892;2024-01-11T08:03:43;98.10;;;39.45;;
33740;SDS011;20065;48.380;10.892;2024-01-11T08:06:32;85.38;;;38.08;;
33740;SDS011;20065;48.380;10.892;2024-01-11T08:09:22;94.43;;;40.47;;
33740;SDS011;20065;48.380;10.892;2024-01-11T08:12:08;85.45;;;36.80;;
33740;SDS011;20065;48.380;10.892;2024-01-11T08:14:54;81.38;;;36.90;;
33740;SDS011;20065;48.380;10.892;2024-01-11T08:17:46;93.95;;;38.58;;
33740;SDS011;20065;48.380;10.892;2024-01-11T08:20:32;95.32;;;40.42;;
33740;SDS011;20065;48.380;10.892;2024-01-11T08:23:18;92.40;;;39.78;;
33740;SDS011;20065;48.380;10.892;2024-01-11T08:26:05;92.47;;;39.88;;
33740;SDS011;20065;48.380;10.892;2024-01-11T08:28:52;92.18;;;40.00;;
33740;SDS011;20065;48.380;10.892;2024-01-11T08:31:39;89.68;;;39.60;;
33740;SDS011;20065;48.380;10.892;2024-01-11T08:34:25;90.88;;;36.97;;
33740;SDS011;20065;48.380;10.892;2024-01-11T08:37:49;92.68;;;36.55;;
33740;SDS011;20065;48.380;10.892;2024-01-11T08:40:35;77.72;;;35.28;;
33740;SDS011;20065;48.380;10.892;2024-01-11T08:43:22;82.20;;;35.70;;
33740;SDS011;20065;48.380;10.892;2024-01-11T08:46:08;87.90;;;37.30;;
33740;SDS011;20065;48.380;10.892;2024-01-11T08:48:54;79.68;;;38.17;;
33740;SDS011;20065;48.380;10.892;2024-01-11T08:51:42;90.45;;;39.88;;
33740;SDS011;20065;48.380;10.892;2024-01-11T08:54:29;80.88;;;35.20;;
33740;SDS011;20065;48.380;10.892;2024-01-11T08:57:19;88.05;;;37.08;;
33740;SDS011;20065;48.380;10.892;2024-01-11T09:00:08;85.95;;;35.75;;
33740;SDS011;20065;48.380;10.892;2024-01-11T09:06:35;85.60;;;37.05;;
33740;SDS011;20065;48.380;10.892;2024-01-11T09:09:21;81.68;;;36.88;;
33740;SDS011;20065;48.380;10.892;2024-01-11T09:12:10;79.55;;;32.95;;
33740;SDS011;20065;48.380;10.892;2024-01-11T09:14:56;78.50;;;34.60;;
33740;SDS011;20065;48.380;10.892;2024-01-11T09:17:55;82.82;;;36.35;;
33740;SDS011;20065;48.380;10.892;2024-01-11T09:24:15;86.57;;;34.13;;
33740;SDS011;20065;48.380;10.892;2024-01-11T09:27:01;85.97;;;37.28;;
33740;SDS011;20065;48.380;10.892;2024-01-11T09:29:51;83.00;;;36.42;;
33740;SDS011;20065;48.380;10.892;2024-01-11T09:32:44;86.60;;;37.30;;
33740;SDS011;20065;48.380;10.892;2024-01-11T09:35:31;86.35;;;36.30;;
33740;SDS011;20065;48.380;10.892;2024-01-11T09:38:17;93.00;;;36.65;;
33740;SDS011;20065;48.380;10.892;2024-01-11T09:41:08;74.97;;;33.38;;
33740;SDS011;20065;48.380;10.892;2024-01-11T09:43:56;74.50;;;34.80;;
33740;SDS011;20065;48.380;10.892;2024-01-11T09:46:45;83.10;;;36.05;;
33740;SDS011;20065;48.380;10.892;2024-01-11T09:49:32;77.93;;;36.35;;
33740;SDS011;20065;48.380;10.892;2024-01-11T09:52:29;88.63;;;37.88;;
33740;SDS011;20065;48.380;10.892;2024-01-11T09:55:25;77.00;;;34.63;;
33740;SDS011;20065;48.380;10.892;2024-01-11T09:58:12;78.50;;;34.53;;
33740;SDS011;20065;48.380;10.892;2024-01-11T10:01:02;78.90;;;36.08;;
33740;SDS011;20065;48.380;10.892;2024-01-11T10:03:49;83.50;;;35.65;;
33740;SDS011;20065;48.380;10.892;2024-01-11T10:06:35;79.07;;;36.25;;
33740;SDS011;20065;48.380;10.892;2024-01-11T10:09:24;80.68;;;33.70;;
33740;SDS011;20065;48.380;10.892;2024-01-11T10:12:15;82.20;;;36.95;;
33740;SDS011;20065;48.380;10.892;2024-01-11T10:15:07;80.25;;;35.75;;
33740;SDS011;20065;48.380;10.892;2024-01-11T10:17:56;80.75;;;35.17;;
33740;SDS011;20065;48.380;10.892;2024-01-11T10:20:43;79.57;;;35.53;;
33740;SDS011;20065;48.380;10.892;2024-01-11T10:23:29;85.45;;;37.70;;
33740;SDS011;20065;48.380;10.892;2024-01-11T10:26:18;78.88;;;37.25;;
33740;SDS011;20065;48.380;10.892;2024-01-11T10:29:07;87.90;;;39.08;;
33740;SDS011;20065;48.380;10.892;2024-01-11T10:31:56;88.05;;;36.10;;
33740;SDS011;20065;48.380;10.892;2024-01-11T10:34:42;81.38;;;37.05;;
33740;SDS011;20065;48.380;10.892;2024-01-11T10:37:28;90.13;;;38.17;;
33740;SDS011;20065;48.380;10.892;2024-01-11T10:40:16;88.50;;;37.38;;
33740;SDS011;20065;48.380;10.892;2024-01-11T10:43:10;90.10;;;39.30;;
33740;SDS011;20065;48.380;10.892;2024-01-11T10:46:00;81.63;;;35.25;;
33740;SDS011;20065;48.380;10.892;2024-01-11T10:48:50;85.65;;;37.05;;
33740;SDS011;20065;48.380;10.892;2024-01-11T10:55:14;73.18;;;35.85;;
33740;SDS011;20065;48.380;10.892;2024-01-11T10:58:02;80.88;;;36.08;;
33740;SDS011;20065;48.380;10.892;2024-01-11T11:00:49;76.45;;;35.22;;
33740;SDS011;20065;48.380;10.892;2024-01-11T11:03:40;92.03;;;39.08;;
33740;SDS011;20065;48.380;10.892;2024-01-11T11:06:28;77.70;;;35.63;;
33740;SDS011;20065;48.380;10.892;2024-01-11T11:09:17;74.55;;;36.60;;
33740;SDS011;20065;48.380;10.892;2024-01-11T11:12:04;84.28;;;35.22;;
33740;SDS011;20065;48.380;10.892;2024-01-11T11:14:52;88.13;;;36.17;;
33740;SDS011;20065;48.380;10.892;2024-01-11T11:17:43;83.55;;;37.47;;
33740;SDS011;20065;48.380;10.892;2024-01-11T11:20:31;83.75;;;38.70;;
33740;SDS011;20065;48.380;10.892;2024-01-11T11:23:18;83.85;;;37.78;;
33740;SDS011;20065;48.380;10.892;2024-01-11T11:26:05;80.57;;;37.80;;
33740;SDS011;20065;48.380;10.892;2024-01-11T11:28:59;94.07;;;40.22;;
33740;SDS011;20065;48.380;10.892;2024-01-11T11:31:45;81.10;;;38.00;;
33740;SDS011;20065;48.380;10.892;2024-01-11T11:34:42;85.80;;;38.33;;
33740;SDS011;20065;48.380;10.892;2024-01-11T11:37:32;93.95;;;41.67;;
33740;SDS011;20065;48.380;10.892;2024-01-11T11:40:21;83.45;;;38.50;;
33740;SDS011;20065;48.380;10.892;2024-01-11T11:43:07;84.68;;;38.70;;
33740;SDS011;20065;48.380;10.892;2024-01-11T11:45:54;82.18;;;39.15;;
33740;SDS011;20065;48.380;10.892;2024-01-11T11:48:53;84.25;;;37.92;;
33740;SDS011;20065;48.380;10.892;2024-01-11T11:51:40;81.57;;;36.15;;
33740;SDS011;20065;48.380;10.892;2024-01-11T11:54:29;82.05;;;40.58;;
33740;SDS011;20065;48.380;10.892;2024-01-11T11:57:16;84.90;;;38.80;;
33740;SDS011;20065;48.380;10.892;2024-01-11T12:00:02;86.18;;;37.10;;
33740;SDS011;20065;48.380;10.892;2024-01-11T12:03:19;76.00;;;33.88;;
33740;SDS011;20065;48.380;10.892;2024-01-11T12:06:07;76.30;;;36.88;;
33740;SDS011;20065;48.380;10.892;2024-01-11T12:08:55;81.82;;;38.28;;
33740;SDS011;20065;48.380;10.892;2024-01-11T12:11:44;75.43;;;37.42;;
33740;SDS011;20065;48.380;10.892;2024-01-11T12:14:30;80.18;;;39.28;;
33740;SDS011;20065;48.380;10.892;2024-01-11T12:17:16;80.15;;;38.47;;
33740;SDS011;20065;48.380;10.892;2024-01-11T12:20:21;79.32;;;38.60;;
33740;SDS011;20065;48.380;10.892;2024-01-11T12:23:14;87.32;;;40.40;;
33740;SDS011;20065;48.380;10.892;2024-01-11T12:26:01;75.97;;;37.83;;
33740;SDS011;20065;48.380;10.892;2024-01-11T12:28:51;86.50;;;43.22;;
33740;SDS011;20065;48.380;10.892;2024-01-11T12:31:37;79.35;;;38.22;;
33740;SDS011;20065;48.380;10.892;2024-01-11T12:34:24;88.35;;;39.90;;
33740;SDS011;20065;48.380;10.892;2024-01-11T12:37:18;80.78;;;38.55;;
33740;SDS011;20065;48.380;10.892;2024-01-11T12:40:04;80.00;;;38.45;;
33740;SDS011;20065;48.380;10.892;2024-01-11T12:42:58;94.00;;;42.10;;
33740;SDS011;20065;48.380;10.892;2024-01-11T12:45:49;84.50;;;41.47;;
33740;SDS011;20065;48.380;10.892;2024-01-11T12:48:35;86.10;;;39.53;;
33740;SDS011;20065;48.380;10.892;2024-01-11T12:51:21;82.10;;;38.95;;
33740;SDS011;20065;48.380;10.892;2024-01-11T12:54:11;86.03;;;39.55;;
33740;SDS011;20065;48.380;10.892;2024-01-11T12:57:05;83.10;;;40.65;;
33740;SDS011;20065;48.380;10.892;2024-01-11T12:59:52;80.55;;;37.72;;
33740;SDS011;20065;48.380;10.892;2024-01-11T13:02:39;81.63;;;39.58;;
33740;SDS011;20065;48.380;10.892;2024-01-11T13:05:26;83.90;;;39.85;;
33740;SDS011;20065;48.380;10.892;2024-01-11T13:08:12;89.82;;;40.35;;
33740;SDS011;20065;48.380;10.892;2024-01-11T13:10:58;83.47;;;40.15;;
33740;SDS011;20065;48.380;10.892;2024-01-11T13:13:44;76.53;;;39.13;;
33740;SDS011;20065;48.380;10.892;2024-01-11T13:16:32;85.25;;;40.15;;
33740;SDS011;20065;48.380;10.892;2024-01-11T13:19:18;80.82;;;40.00;;
33740;SDS011;20065;48.380;10.892;2024-01-11T13:23:14;75.10;;;38.67;;
33740;SDS011;20065;48.380;10.892;2024-01-11T13:26:02;72.38;;;37.42;;
33740;SDS011;20065;48.380;10.892;2024-01-11T13:28:50;82.40;;;37.83;;
33740;SDS011;20065;48.380;10.892;2024-01-11T13:31:40;76.85;;;37.40;;
33740;SDS011;20065;48.380;10.892;2024-01-11T13:34:27;85.85;;;40.25;;
33740;SDS011;20065;48.380;10.892;2024-01-11T13:37:20;87.78;;;40.00;;
33740;SDS011;20065;48.380;10.892;2024-01-11T13:40:06;75.68;;;38.88;;
33740;SDS011;20065;48.380;10.892;2024-01-11T13:42:55;77.45;;;39.67;;
33740;SDS011;20065;48.380;10.892;2024-01-11T13:45:44;86.32;;;40.03;;
33740;SDS011;20065;48.380;10.892;2024-01-11T13:48:31;82.25;;;39.17;;
33740;SDS011;20065;48.380;10.892;2024-01-11T13:51:18;77.95;;;38.42;;
33740;SDS011;20065;48.380;10.892;2024-01-11T13:54:04;79.43;;;40.35;;
33740;SDS011;20065;48.380;10.892;2024-01-11T13:56:50;86.32;;;40.55;;
33740;SDS011;20065;48.380;10.892;2024-01-11T13:59:43;82.90;;;39.80;;
33740;SDS011;20065;48.380;10.892;2024-01-11T14:06:16;80.95;;;40.55;;
33740;SDS011;20065;48.380;10.892;2024-01-11T14:09:03;91.47;;;40.15;;
33740;SDS011;20065;48.380;10.892;2024-01-11T14:11:53;75.95;;;38.78;;
33740;SDS011;20065;48.380;10.892;2024-01-11T14:14:39;73.93;;;38.88;;
33740;SDS011;20065;48.380;10.892;2024-01-11T14:17:26;74.00;;;38.33;;
33740;SDS011;20065;48.380;10.892;2024-01-11T14:20:16;80.80;;;40.47;;
33740;SDS011;20065;48.380;10.892;2024-01-11T14:23:06;76.50;;;39.20;;
33740;SDS011;20065;48.380;10.892;2024-01-11T14:25:52;79.00;;;38.95;;
33740;SDS011;20065;48.380;10.892;2024-01-11T14:28:41;82.20;;;40.22;;
33740;SDS011;20065;48.380;10.892;2024-01-11T14:31:32;74.45;;;39.05;;
33740;SDS011;20065;48.380;10.892;2024-01-11T14:34:21;89.15;;;41.00;;
33740;SDS011;20065;48.380;10.892;2024-01-11T14:37:07;83.60;;;40.03;;
33740;SDS011;20065;48.380;10.892;2024-01-11T14:39:53;76.40;;;40.42;;
33740;SDS011;20065;48.380;10.892;2024-01-11T14:42:40;82.63;;;38.97;;
33740;SDS011;20065;48.380;10.892;2024-01-11T14:45:26;68.78;;;39.05;;
33740;SDS011;20065;48.380;10.892;2024-01-11T14:48:12;79.68;;;40.92;;
33740;SDS011;20065;48.380;10.892;2024-01-11T14:50:59;75.50;;;38.67;;
33740;SDS011;20065;48.380;10.892;2024-01-11T14:53:45;78.25;;;42.22;;
33740;SDS011;20065;48.380;10.892;2024-01-11T14:56:31;73.95;;;40.05;;
33740;SDS011;20065;48.380;10.892;2024-01-11T14:59:18;77.38;;;39.97;;
33740;SDS011;20065;48.380;10.892;2024-01-11T15:02:04;79.10;;;38.45;;
33740;SDS011;20065;48.380;10.892;2024-01-11T15:04:50;80.05;;;38.03;;
33740;SDS011;20065;48.380;10.892;2024-01-11T15:07:36;66.30;;;38.25;;
33740;SDS011;20065;48.380;10.892;2024-01-11T15:10:23;77.78;;;40.50;;
33740;SDS011;20065;48.380;10.892;2024-01-11T15:13:09;79.82;;;42.00;;
33740;SDS011;20065;48.380;10.892;2024-01-11T15:15:55;84.28;;;41.05;;
33740;SDS011;20065;48.380;10.892;2024-01-11T15:18:51;78.00;;;39.88;;
33740;SDS011;20065;48.380;10.892;2024-01-11T15:21:58;82.97;;;42.05;;
33740;SDS011;20065;48.380;10.892;2024-01-11T15:25:12;74.75;;;38.42;;
33740;SDS011;20065;48.380;10.892;2024-01-11T15:28:23;74.18;;;40.67;;
33740;SDS011;20065;48.380;10.892;2024-01-11T15:32:04;84.88;;;40.25;;
33740;SDS011;20065;48.380;10.892;2024-01-11T15:35:20;80.18;;;42.35;;
33740;SDS011;20065;48.380;10.892;2024-01-11T15:38:44;82.13;;;41.47;;
33740;SDS011;20065;48.380;10.892;2024-01-11T15:45:21;84.53;;;40.10;;
33740;SDS011;20065;48.380;10.892;2024-01-11T15:48:13;86.35;;;40.25;;
33740;SDS011;20065;48.380;10.892;2024-01-11T15:50:59;88.00;;;41.47;;
33740;SDS011;20065;48.380;10.892;2024-01-11T15:53:49;90.60;;;41.50;;
33740;SDS011;20065;48.380;10.892;2024-01-11T16:00:09;91.43;;;42.72;;
33740;SDS011;20065;48.380;10.892;2024-01-11T16:02:59;91.25;;;41.13;;
33740;SDS011;20065;48.380;10.892;2024-01-11T16:05:48;91.20;;;42.78;;
33740;SDS011;20065;48.380;10.892;2024-01-11T16:12:11;97.43;;;43.28;;
33740;SDS011;20065;48.380;10.892;2024-01-11T16:14:59;82.55;;;40.63;;
33740;SDS011;20065;48.380;10.892;2024-01-11T16:21:11;101.18;;;40.97;;
33740;SDS011;20065;48.380;10.892;2024-01-11T16:23:58;96.18;;;44.28;;
33740;SDS011;20065;48.380;10.892;2024-01-11T16:32:16;98.07;;;41.00;;
33740;SDS011;20065;48.380;10.892;2024-01-11T16:35:24;88.13;;;41.25;;
33740;SDS011;20065;48.380;10.892;2024-01-11T16:38:20;89.05;;;42.65;;
33740;SDS011;20065;48.380;10.892;2024-01-11T16:41:12;92.70;;;41.65;;
33740;SDS011;20065;48.380;10.892;2024-01-11T16:43:58;90.13;;;44.70;;